Time;durP1;ratioP1;P1;durP2;ratioP2;P2;SDS_P1;SDS_P2;PMS_P1;PMS_P2;Temp;Humidity;BMP_temperature;BMP_pressure;BME280_temperature;BME280_humidity;BME280_pressure;Samples;Min_cycle;Max_cycle;Signal;HPM_P1;HPM_P2
2021/08/27 00:00:41;;;;;;;11.40;7.15;;;13.70;80.60;;;12.37;83.34;95724.03;4971180;28;20038;-69
2021/08/27 00:03:07;;;;;;;11.65;6.53;;;13.70;80.90;;;12.36;84.08;95718.97;4965179;28;20039;-69
2021/08/27 00:05:32;;;;;;;7.80;6.25;;;13.80;80.70;;;12.35;82.73;95720.81;4953672;28;20042;-69
2021/08/27 00:07:58;;;;;;;10.45;6.68;;;13.70;80.70;;;12.37;83.55;95720.59;4953598;28;20126;-69
2021/08/27 00:10:24;;;;;;;13.45;6.80;;;13.70;80.80;;;12.35;83.58;95712.06;4984035;28;20050;-69
2021/08/27 00:12:50;;;;;;;8.57;6.80;;;13.70;80.60;;;12.35;83.08;95714.72;4975886;28;20109;-69
2021/08/27 00:15:15;;;;;;;11.00;6.93;;;13.70;80.90;;;12.34;83.92;95707.81;4981087;28;20501;-69
2021/08/27 00:17:42;;;;;;;11.68;7.10;;;13.70;80.80;;;12.33;83.02;95707.00;4972887;28;20049;-68
2021/08/27 00:20:08;;;;;;;11.43;7.20;;;13.70;80.80;;;12.31;83.61;95706.41;4953362;28;20102;-68
2021/08/27 00:22:34;;;;;;;12.05;6.90;;;13.70;80.90;;;12.32;83.93;95705.41;4981632;28;20141;-68
2021/08/27 00:25:00;;;;;;;10.80;7.28;;;13.70;80.80;;;12.32;83.82;95712.50;4968685;28;20499;-68
2021/08/27 00:27:25;;;;;;;9.95;7.10;;;13.70;81.10;;;12.30;83.48;95709.25;4983671;28;20038;-68
2021/08/27 00:29:51;;;;;;;9.55;6.45;;;13.70;81.00;;;12.31;83.51;95703.78;4980116;28;20098;-68
2021/08/27 00:32:17;;;;;;;9.82;7.30;;;13.70;81.00;;;12.31;83.68;95702.97;4953513;28;20031;-68
2021/08/27 00:34:43;;;;;;;9.75;6.97;;;13.80;80.90;;;12.30;83.44;95704.00;4955190;28;20097;-69
2021/08/27 00:37:08;;;;;;;10.15;7.13;;;13.60;81.00;;;12.29;83.98;95712.91;4973235;28;20070;-69
2021/08/27 00:39:34;;;;;;;10.43;6.40;;;13.60;81.40;;;12.24;84.07;95706.44;4982417;28;20039;-68
2021/08/27 00:42:00;;;;;;;10.93;7.28;;;13.60;81.50;;;12.24;84.12;95705.63;4977904;28;20475;-69
2021/08/27 00:44:26;;;;;;;11.15;6.90;;;13.60;81.50;;;12.25;84.28;95708.06;4957127;28;20263;-69
2021/08/27 00:46:51;;;;;;;11.70;7.47;;;13.60;81.90;;;12.24;84.36;95710.91;4963501;28;20093;-67
2021/08/27 00:49:17;;;;;;;10.68;7.35;;;13.70;81.80;;;12.24;84.31;95701.19;4975271;28;20034;-69
2021/08/27 00:51:44;;;;;;;14.05;6.47;;;13.70;81.70;;;12.23;84.58;95699.56;4980576;28;20034;-68
2021/08/27 00:54:10;;;;;;;10.25;6.88;;;13.70;81.60;;;12.23;84.75;95701.38;4967521;28;20049;-68
2021/08/27 00:56:35;;;;;;;12.50;7.70;;;13.70;81.50;;;12.22;84.88;95699.75;4961443;28;20039;-69
2021/08/27 00:59:01;;;;;;;10.45;7.80;;;13.70;81.40;;;12.21;84.29;95701.56;4971791;28;20034;-69
2021/08/27 01:01:27;;;;;;;12.63;7.47;;;13.70;81.10;;;12.22;84.44;95703.22;4966584;28;20089;-69
2021/08/27 01:03:57;;;;;;;11.55;7.68;;;13.70;81.30;;;12.20;84.78;95689.41;4964862;28;20298;-69
2021/08/27 01:06:43;;;;;;;10.50;6.70;;;13.70;81.10;;;12.22;85.54;95702.38;4988908;28;20038;-69
2021/08/27 01:09:22;;;;;;;11.25;7.85;;;13.80;81.10;;;12.21;85.41;95698.94;4970439;28;20039;-69
2021/08/27 01:11:52;;;;;;;13.23;7.40;;;13.70;81.00;;;12.22;85.42;95702.38;4969877;28;20034;-70
2021/08/27 01:14:53;;;;;;;12.88;7.20;;;13.70;81.20;;;12.23;85.58;95698.75;4975352;28;20503;-69
2021/08/27 01:17:28;;;;;;;10.98;7.88;;;13.70;81.30;;;12.18;85.76;95707.25;4949283;28;20466;-69
2021/08/27 01:20:51;;;;;;;13.02;7.63;;;13.70;81.20;;;12.21;85.42;95706.03;4952101;28;20081;-69
2021/08/27 01:23:40;;;;;;;12.43;7.50;;;13.70;81.30;;;12.18;85.59;95717.81;4975420;28;20136;-69
2021/08/27 01:26:06;;;;;;;10.48;7.45;;;13.60;81.60;;;12.14;84.59;95710.53;4981377;28;20046;-69
2021/08/27 01:28:33;;;;;;;12.77;7.50;;;13.60;81.40;;;12.13;85.29;95714.19;4974250;28;20039;-69
2021/08/27 01:31:21;;;;;;;10.60;7.68;;;13.60;81.80;;;12.15;86.11;95718.22;4965031;28;20502;-69
2021/08/27 01:34:24;;;;;;;12.45;7.80;;;13.60;81.80;;;12.14;85.98;95716.63;4987792;28;20042;-69
2021/08/27 01:36:50;;;;;;;11.85;8.20;;;13.70;81.90;;;12.15;85.89;95723.50;4960594;28;20479;-69
2021/08/27 01:39:16;;;;;;;11.48;7.63;;;13.70;82.10;;;12.14;85.74;95721.88;4952308;28;20035;-69
2021/08/27 01:41:42;;;;;;;11.18;7.68;;;13.70;82.30;;;12.13;86.05;95730.81;4964164;28;20510;-69
2021/08/27 01:44:08;;;;;;;11.43;7.97;;;13.70;82.20;;;12.12;86.24;95726.56;4971291;28;20069;-69
2021/08/27 01:46:35;;;;;;;9.23;6.05;;;13.70;82.30;;;12.12;86.80;95731.03;4944158;28;20510;-69
2021/08/27 01:49:03;;;;;;;11.82;7.72;;;13.70;82.60;;;12.09;86.50;95729.59;4965791;28;20506;-69
2021/08/27 01:51:30;;;;;;;13.35;8.05;;;13.60;83.10;;;12.13;87.04;95738.72;4948735;28;20061;-68
2021/08/27 01:53:55;;;;;;;10.32;7.68;;;13.70;83.20;;;12.12;87.20;95750.28;4953060;28;20027;-69
2021/08/27 01:56:21;;;;;;;13.63;8.48;;;13.60;83.20;;;12.09;87.84;95745.44;4965812;28;20042;-69
2021/08/27 01:58:47;;;;;;;12.88;8.57;;;13.60;83.60;;;12.08;87.40;95751.72;4947622;28;20038;-69
2021/08/27 02:01:13;;;;;;;11.93;8.55;;;13.50;84.00;;;12.05;87.31;95738.97;4974020;28;20042;-69
2021/08/27 02:03:39;;;;;;;11.93;8.50;;;13.50;84.20;;;12.03;87.57;95733.09;4978565;28;20038;-69
2021/08/27 02:06:08;;;;;;;10.75;8.27;;;13.50;83.80;;;12.00;87.95;95719.50;4998177;28;20054;-69
2021/08/27 02:08:34;;;;;;;13.57;8.48;;;13.60;83.80;;;12.01;88.02;95721.94;4982824;28;20043;-69
2021/08/27 02:11:00;;;;;;;13.70;8.50;;;13.60;83.80;;;12.00;88.39;95715.03;4969544;28;20041;-69
2021/08/27 02:13:26;;;;;;;11.52;7.90;;;13.50;84.10;;;11.97;88.22;95731.25;4972168;28;20125;-69
2021/08/27 02:15:51;;;;;;;9.55;7.78;;;13.40;84.20;;;11.94;88.46;95736.94;4971539;28;20580;-69
2021/08/27 02:18:17;;;;;;;10.93;8.55;;;13.40;84.30;;;11.95;88.42;95735.91;4953103;28;20038;-69
2021/08/27 02:20:43;;;;;;;11.43;8.02;;;13.50;84.10;;;11.92;88.59;95733.69;4985614;28;20415;-69
2021/08/27 02:23:09;;;;;;;10.43;7.70;;;13.50;84.10;;;11.90;89.13;95722.56;4999056;28;20054;-69
2021/08/27 02:25:35;;;;;;;9.60;7.50;;;13.50;84.00;;;11.92;88.37;95717.88;4966283;28;20089;-69
2021/08/27 02:28:04;;;;;;;10.13;6.20;;;13.50;84.00;;;11.90;88.47;95728.63;4965283;28;20413;-69
2021/08/27 02:30:31;;;;;;;10.80;6.57;;;13.40;83.80;;;11.91;88.48;95740.00;4977590;28;20042;-69
2021/08/27 02:32:59;;;;;;;9.05;6.20;;;13.40;84.00;;;11.89;88.76;95731.47;4955901;28;20030;-69
2021/08/27 02:35:25;;;;;;;8.18;6.15;;;13.40;84.20;;;11.88;88.68;95733.31;4983629;28;20042;-70
2021/08/27 02:37:51;;;;;;;9.32;6.03;;;13.40;84.10;;;11.89;88.80;95736.75;4970228;28;20030;-69
2021/08/27 02:40:17;;;;;;;12.27;6.82;;;13.40;84.20;;;11.90;88.85;95738.38;4978225;28;20046;-69
2021/08/27 02:42:43;;;;;;;8.98;6.80;;;13.50;84.00;;;11.86;89.02;95726.63;4975738;28;20109;-69
2021/08/27 02:45:09;;;;;;;13.50;7.40;;;13.40;84.30;;;11.87;89.21;95736.97;4981762;28;20076;-69
2021/08/27 02:47:35;;;;;;;10.73;7.45;;;13.50;84.40;;;11.90;89.20;95735.72;4982270;28;20570;-69
2021/08/27 02:50:01;;;;;;;13.45;8.98;;;13.50;84.60;;;11.91;89.28;95737.34;4971845;28;20034;-69
2021/08/27 02:52:51;;;;;;;12.15;8.43;;;13.40;84.20;;;11.89;90.18;95734.91;4958273;28;20026;-69
2021/08/27 02:55:22;;;;;;;10.95;8.15;;;13.40;84.80;;;11.85;89.73;95733.72;4991092;28;20042;-69
2021/08/27 02:58:16;;;;;;;13.45;9.18;;;13.40;84.70;;;11.85;90.20;95736.34;4977716;28;20401;-69
2021/08/27 03:01:00;;;;;;;11.45;8.63;;;13.30;84.50;;;11.80;90.52;95736.16;4961348;28;20026;-69
2021/08/27 03:03:32;;;;;;;13.10;8.85;;;13.30;84.70;;;11.80;90.67;95736.16;4988659;28;20432;-69
2021/08/27 03:06:03;;;;;;;13.00;9.07;;;13.40;85.10;;;11.83;90.45;95732.31;4973065;28;20053;-69
2021/08/27 03:08:29;;;;;;;15.45;9.23;;;13.40;85.00;;;11.80;89.53;95728.25;4982863;28;20100;-69
2021/08/27 03:11:08;;;;;;;10.77;8.73;;;13.40;84.80;;;11.82;91.08;95730.69;4973423;28;20515;-69
2021/08/27 03:14:03;;;;;;;13.23;8.95;;;13.40;85.00;;;11.80;89.92;95730.09;4973709;28;20035;-70
2021/08/27 03:16:29;;;;;;;11.63;8.60;;;13.30;85.10;;;11.81;89.88;95734.34;4975007;28;20026;-69
2021/08/27 03:19:04;;;;;;;11.52;8.65;;;13.30;85.20;;;11.83;90.38;95729.69;4975117;28;20437;-69
2021/08/27 03:21:41;;;;;;;14.90;9.43;;;13.40;85.10;;;11.82;90.50;95728.06;4970686;28;20510;-68
2021/08/27 03:24:20;;;;;;;13.80;9.35;;;13.40;85.30;;;11.82;90.68;95730.69;4974640;28;20050;-69
2021/08/27 03:26:51;;;;;;;13.93;9.35;;;13.30;85.20;;;11.82;90.63;95733.31;4990043;28;20046;-70
2021/08/27 03:29:17;;;;;;;11.18;9.00;;;13.40;85.00;;;11.80;90.25;95730.91;4967769;28;20046;-69
2021/08/27 03:31:43;;;;;;;12.98;8.88;;;13.30;85.30;;;11.81;91.11;95729.06;4960425;28;20066;-69
2021/08/27 03:34:08;;;;;;;14.98;10.00;;;13.30;85.40;;;11.81;90.75;95731.72;4955115;28;20047;-69
2021/08/27 03:36:34;;;;;;;16.67;10.48;;;13.30;85.30;;;11.80;91.07;95727.47;4972182;28;20038;-68
2021/08/27 03:39:01;;;;;;;14.52;10.13;;;13.40;85.60;;;11.83;91.28;95727.03;4973141;28;20038;-69
2021/08/27 03:41:29;;;;;;;14.60;10.32;;;13.40;85.30;;;11.83;91.84;95735.75;4971626;28;20427;-69
2021/08/27 03:43:55;;;;;;;14.07;10.27;;;13.40;85.20;;;11.82;91.27;95728.88;4973470;28;20031;-69
2021/08/27 03:46:21;;;;;;;16.67;11.32;;;13.40;85.20;;;11.82;91.21;95738.59;4984347;28;20109;-69
2021/08/27 03:48:48;;;;;;;15.45;10.43;;;13.40;85.40;;;11.83;91.12;95735.75;4989972;28;20505;-69
2021/08/27 03:51:14;;;;;;;14.10;11.25;;;13.40;85.40;;;11.86;90.85;95737.97;4988035;28;20035;-69
2021/08/27 03:53:40;;;;;;;17.52;11.85;;;13.40;85.40;;;11.84;91.50;95736.56;4974029;28;20115;-69
2021/08/27 03:56:08;;;;;;;16.52;10.98;;;13.40;85.30;;;11.84;91.33;95737.38;4974061;28;20043;-69
2021/08/27 03:58:34;;;;;;;15.13;11.43;;;13.40;85.10;;;11.84;90.84;95741.84;4970256;28;20038;-69
2021/08/27 04:01:00;;;;;;;16.02;11.02;;;13.30;85.10;;;11.83;90.75;95740.22;4964473;28;20023;-69
2021/08/27 04:03:25;;;;;;;15.15;11.30;;;13.40;85.10;;;11.82;90.92;95738.59;4986040;28;20565;-69
2021/08/27 04:06:07;;;;;;;21.92;17.13;;;13.40;85.10;;;11.83;91.62;95734.94;4954605;28;20034;-69
2021/08/27 04:08:35;;;;;;;20.45;15.95;;;13.50;85.30;;;11.81;90.68;95727.25;4973371;28;20038;-68
2021/08/27 04:11:01;;;;;;;13.10;9.75;;;13.40;85.30;;;11.81;90.79;95731.72;4973368;28;20042;-69
2021/08/27 04:13:27;;;;;;;12.45;8.30;;;13.30;84.80;;;11.81;90.73;95745.69;4965174;28;20031;-69
2021/08/27 04:15:53;;;;;;;11.57;8.63;;;13.30;84.80;;;11.80;90.51;95751.16;4989353;28;20026;-69
2021/08/27 04:18:19;;;;;;;14.57;10.05;;;13.30;85.30;;;11.81;90.76;95744.88;4954796;28;20138;-69
2021/08/27 04:20:44;;;;;;;15.23;10.73;;;13.40;85.20;;;11.80;91.40;95745.91;4969637;28;20038;-69
2021/08/27 04:23:10;;;;;;;17.25;14.13;;;13.30;85.10;;;11.81;90.74;95747.53;4978821;28;20034;-69
2021/08/27 04:25:36;;;;;;;44.53;35.55;;;13.40;85.30;;;11.79;90.77;95747.72;4972903;28;20459;-69
2021/08/27 04:28:02;;;;;;;19.88;14.98;;;13.30;85.30;;;11.79;90.55;95754.81;4983443;28;20503;-69
2021/08/27 04:30:27;;;;;;;14.50;10.07;;;13.30;85.20;;;11.76;90.51;95745.44;4953858;28;20102;-69
2021/08/27 04:32:53;;;;;;;13.13;9.43;;;13.30;85.20;;;11.74;91.19;95744.03;4973177;28;20031;-69
2021/08/27 04:35:19;;;;;;;13.98;10.05;;;13.20;85.40;;;11.76;91.17;95744.63;4970539;28;20031;-69
2021/08/27 04:37:45;;;;;;;15.27;9.88;;;13.30;85.40;;;11.72;91.49;95744.25;4980964;28;20108;-69
2021/08/27 04:40:11;;;;;;;12.18;9.45;;;13.30;85.50;;;11.73;91.69;95745.84;4972342;28;20086;-69
2021/08/27 04:42:36;;;;;;;12.40;9.30;;;13.40;85.20;;;11.74;91.21;95741.41;4975200;28;20514;-70
2021/08/27 04:45:02;;;;;;;14.10;11.18;;;13.30;85.20;;;11.70;91.30;95746.28;4964441;28;20050;-69
2021/08/27 04:47:28;;;;;;;15.82;12.32;;;13.30;84.90;;;11.72;91.32;95759.22;4972622;28;20402;-70
2021/08/27 04:49:54;;;;;;;21.40;16.25;;;13.30;85.50;;;11.74;91.65;95744.84;4961947;28;20125;-69
2021/08/27 04:52:19;;;;;;;22.38;18.40;;;13.40;85.30;;;11.76;91.70;95755.19;4970077;28;20038;-70
2021/08/27 04:54:45;;;;;;;16.38;13.07;;;13.40;85.20;;;11.78;91.69;95747.91;4968718;28;20061;-69
2021/08/27 04:57:11;;;;;;;13.05;9.18;;;13.50;85.00;;;11.77;91.49;95747.09;4986739;28;20037;-69
2021/08/27 04:59:38;;;;;;;11.80;9.70;;;13.40;84.70;;;11.79;91.44;95745.09;4987974;28;20121;-69
2021/08/27 05:02:04;;;;;;;12.13;9.55;;;13.30;84.90;;;11.80;91.64;95746.72;4978399;28;20038;-69
2021/08/27 05:04:30;;;;;;;10.75;8.35;;;13.50;85.10;;;11.82;91.52;95751.78;4981735;28;20070;-70
2021/08/27 05:06:55;;;;;;;12.25;9.18;;;13.40;85.10;;;11.84;91.28;95757.66;4981498;28;20070;-69
2021/08/27 05:09:21;;;;;;;11.57;8.32;;;13.40;84.90;;;11.84;91.48;95757.66;4972356;28;20441;-69
2021/08/27 05:11:47;;;;;;;11.05;8.45;;;13.50;84.80;;;11.83;91.19;95748.94;4957624;28;20734;-70
2021/08/27 05:14:13;;;;;;;9.30;7.57;;;13.50;84.70;;;11.84;91.45;95758.47;4971509;28;20054;-70
2021/08/27 05:16:38;;;;;;;10.50;7.75;;;13.40;84.70;;;11.86;91.10;95759.06;4985854;28;20093;-69
2021/08/27 05:19:04;;;;;;;13.82;11.13;;;13.50;84.70;;;11.86;91.14;95761.69;4969807;28;20054;-69
2021/08/27 05:21:30;;;;;;;13.48;10.23;;;13.50;84.60;;;11.86;91.61;95761.69;4970347;28;20081;-69
2021/08/27 05:23:56;;;;;;;9.60;8.23;;;13.50;84.80;;;11.89;91.27;95771.00;4971768;28;20027;-69
2021/08/27 05:26:22;;;;;;;9.00;7.55;;;13.60;84.90;;;11.91;91.85;95768.97;4946512;28;20038;-69
2021/08/27 05:28:48;;;;;;;7.97;6.63;;;13.60;84.90;;;11.93;91.53;95780.94;4978750;28;20065;-69
2021/08/27 05:31:17;;;;;;;8.40;6.57;;;13.60;84.50;;;11.96;91.10;95767.34;4975969;28;20038;-71
2021/08/27 05:33:43;;;;;;;8.95;6.88;;;13.60;84.50;;;11.96;90.96;95766.53;4944693;28;20049;-71
2021/08/27 05:36:09;;;;;;;12.95;8.63;;;13.60;84.00;;;11.95;90.62;95768.34;4967607;28;20405;-69
2021/08/27 05:38:35;;;;;;;7.65;6.20;;;13.60;84.40;;;11.96;90.66;95769.16;4959078;28;20050;-68
2021/08/27 05:41:01;;;;;;;7.65;5.43;;;13.60;84.40;;;11.98;90.94;95772.41;4977601;28;20034;-70
2021/08/27 05:43:27;;;;;;;7.43;5.45;;;13.60;84.20;;;11.99;90.83;95765.31;4980921;28;20062;-68
2021/08/27 05:45:52;;;;;;;7.82;5.93;;;13.60;84.50;;;11.99;91.05;95771.38;4983650;28;20112;-68
2021/08/27 05:48:18;;;;;;;7.97;6.15;;;13.70;84.00;;;12.01;90.46;95768.56;4972146;28;20038;-67
2021/08/27 05:50:44;;;;;;;7.68;6.13;;;13.70;84.00;;;12.02;90.72;95771.00;4977932;28;20545;-67
2021/08/27 05:53:09;;;;;;;9.75;6.40;;;13.70;83.90;;;12.09;91.08;95771.78;4987715;28;20073;-67
2021/08/27 05:55:35;;;;;;;7.03;5.60;;;13.90;84.00;;;12.09;90.32;95774.44;5004291;28;20057;-67
2021/08/27 05:58:01;;;;;;;7.60;6.28;;;13.70;83.40;;;12.05;90.45;95769.78;4968225;28;20323;-67
2021/08/27 06:00:27;;;;;;;7.57;6.57;;;13.80;83.60;;;12.14;90.26;95782.53;4967877;28;20058;-67
2021/08/27 06:02:52;;;;;;;7.75;6.13;;;13.80;83.90;;;12.17;90.96;95783.94;4969968;28;20130;-68
2021/08/27 06:05:20;;;;;;;9.88;7.22;;;13.80;83.70;;;12.20;90.20;95786.97;4959750;28;20030;-67
2021/08/27 06:07:46;;;;;;;9.77;7.45;;;13.90;83.50;;;12.26;90.60;95788.78;4969109;28;20061;-68
2021/08/27 06:10:12;;;;;;;10.57;7.53;;;14.00;83.60;;;12.31;90.65;95790.81;4952366;28;20034;-68
2021/08/27 06:12:39;;;;;;;12.38;8.20;;;14.10;83.20;;;12.31;90.11;95795.28;4981214;28;20045;-68
2021/08/27 06:15:05;;;;;;;9.85;8.13;;;14.00;83.20;;;12.35;90.28;95796.47;4960723;28;20042;-68
2021/08/27 06:17:31;;;;;;;11.18;8.07;;;14.00;83.30;;;12.35;90.59;95804.38;4987873;28;20027;-67
2021/08/27 06:19:57;;;;;;;8.48;7.40;;;14.00;82.90;;;12.37;90.28;95805.00;4971537;28;20119;-67
2021/08/27 06:22:22;;;;;;;8.65;7.47;;;14.00;83.30;;;12.42;89.77;95807.81;4976562;28;20050;-67
2021/08/27 06:24:48;;;;;;;9.48;8.27;;;14.00;83.20;;;12.44;90.60;95798.66;4997981;28;20053;-68
2021/08/27 06:27:14;;;;;;;9.20;7.18;;;14.00;83.50;;;12.50;89.77;95794.41;4973873;28;20034;-68
2021/08/27 06:29:40;;;;;;;9.57;7.53;;;14.20;83.20;;;12.54;89.66;95795.59;4988319;28;20030;-67
2021/08/27 06:32:06;;;;;;;9.35;7.10;;;14.20;82.70;;;12.60;90.19;95800.03;4968934;28;20065;-68
2021/08/27 06:34:32;;;;;;;9.95;6.88;;;14.30;82.40;;;12.64;89.85;95795.97;4967636;28;20090;-68
2021/08/27 06:36:57;;;;;;;9.63;6.82;;;14.50;82.20;;;12.69;89.46;95803.28;4980516;28;20469;-71
2021/08/27 06:39:23;;;;;;;9.38;7.75;;;14.50;82.30;;;12.73;90.09;95804.47;4971703;28;20399;-70
2021/08/27 06:41:49;;;;;;;10.65;7.30;;;14.50;82.60;;;12.77;89.30;95811.75;4985808;28;20457;-70
2021/08/27 06:44:15;;;;;;;7.95;7.15;;;14.60;82.30;;;12.83;89.15;95805.63;4954305;28;20031;-72
2021/08/27 06:46:43;;;;;;;10.57;7.22;;;14.70;81.90;;;12.89;89.06;95815.34;4969527;28;20031;-72
2021/08/27 06:49:11;;;;;;;8.90;6.80;;;14.70;81.70;;;12.95;89.68;95812.91;4981888;28;20034;-72
2021/08/27 06:51:37;;;;;;;7.75;6.50;;;14.80;81.40;;;13.00;88.99;95810.44;4971093;28;20046;-71
2021/08/27 06:54:03;;;;;;;9.38;7.43;;;14.70;81.50;;;13.02;88.95;95813.69;4993709;28;20053;-72
2021/08/27 06:56:28;;;;;;;8.50;6.95;;;14.70;81.60;;;13.03;88.96;95816.09;4983075;28;20054;-72
2021/08/27 06:58:54;;;;;;;7.85;6.22;;;14.70;81.40;;;13.05;88.79;95821.16;4987232;28;20447;-71
2021/08/27 07:01:20;;;;;;;9.15;6.45;;;14.70;81.40;;;13.09;87.66;95819.72;4961721;28;20130;-70
2021/08/27 07:03:46;;;;;;;8.38;6.00;;;14.80;81.20;;;13.16;88.73;95823.16;4964808;28;20516;-68
2021/08/27 07:06:13;;;;;;;8.98;6.28;;;14.90;80.90;;;13.24;87.79;95825.56;4985605;28;20502;-71
2021/08/27 07:08:39;;;;;;;8.35;5.35;;;15.10;80.50;;;13.30;87.58;95822.06;4998114;28;20524;-72
2021/08/27 07:11:04;;;;;;;15.77;9.65;;;15.10;79.50;;;13.42;86.64;95824.88;4986877;28;20026;-69
2021/08/27 07:13:30;;;;;;;14.35;11.90;;;15.40;79.10;;;13.52;87.05;95825.19;4986713;28;20120;-71
2021/08/27 07:15:56;;;;;;;7.90;4.68;;;15.60;79.00;;;13.63;86.73;95826.34;4971699;28;20046;-70
2021/08/27 07:18:26;;;;;;;6.80;4.85;;;15.60;78.00;;;13.67;85.88;95830.19;4953710;28;20041;-69
2021/08/27 07:20:53;;;;;;;6.70;5.00;;;15.40;77.40;;;13.65;85.34;95829.59;4950524;28;20045;-72
2021/08/27 07:23:19;;;;;;;6.55;4.93;;;15.40;78.40;;;13.66;84.95;95823.28;4975612;28;20289;-74
2021/08/27 07:25:44;;;;;;;5.35;4.43;;;15.30;78.60;;;13.65;85.54;95829.59;4973483;28;20458;-68
2021/08/27 07:28:10;;;;;;;7.35;4.43;;;15.20;78.80;;;13.61;84.72;95817.81;4963899;28;20043;-68
2021/08/27 07:30:36;;;;;;;6.22;4.10;;;15.30;78.40;;;13.62;84.27;95830.81;5000954;28;20294;-68
2021/08/27 07:33:03;;;;;;;4.97;3.13;;;15.20;78.80;;;13.60;84.08;95826.78;4957757;28;20051;-68
2021/08/27 07:35:28;;;;;;;5.80;3.33;;;15.20;78.00;;;13.58;84.87;95818.22;4962989;28;20039;-68
2021/08/27 07:37:54;;;;;;;5.40;3.55;;;15.30;78.20;;;13.65;84.55;95819.00;4953494;28;20034;-68
2021/08/27 07:40:20;;;;;;;4.35;2.92;;;15.50;77.90;;;13.70;83.76;95813.88;4958843;28;20212;-68
2021/08/27 07:42:46;;;;;;;6.00;3.05;;;15.60;77.50;;;13.87;85.21;95822.09;4971316;28;20068;-69
2021/08/27 07:45:13;;;;;;;4.43;2.90;;;15.90;77.00;;;13.97;84.56;95828.50;4955279;28;20038;-69
2021/08/27 07:47:39;;;;;;;4.63;3.00;;;16.00;76.30;;;14.09;84.47;95832.06;4987433;28;20034;-69
2021/08/27 07:50:05;;;;;;;3.47;2.78;;;16.20;76.10;;;14.22;83.50;95836.41;4984575;28;20518;-69
2021/08/27 07:52:31;;;;;;;4.03;2.88;;;16.30;75.90;;;14.32;83.52;95833.28;4969478;28;20061;-69
2021/08/27 07:54:57;;;;;;;4.75;2.75;;;16.40;74.50;;;14.41;82.40;95839.91;4938131;28;20034;-68
2021/08/27 07:57:22;;;;;;;4.35;3.17;;;16.50;74.60;;;14.48;81.90;95840.66;4969645;28;20055;-69
2021/08/27 07:59:48;;;;;;;3.95;2.70;;;16.40;74.30;;;14.46;81.61;95847.22;4980921;28;20054;-68
2021/08/27 08:02:14;;;;;;;6.05;2.97;;;16.10;73.80;;;14.42;81.82;95849.47;4974990;28;20089;-68
2021/08/27 08:04:43;;;;;;;4.53;3.17;;;16.10;74.00;;;14.42;80.31;95854.75;4985531;28;20084;-68
2021/08/27 08:07:09;;;;;;;5.53;3.40;;;16.20;74.10;;;14.41;81.66;95845.19;4986376;28;20145;-69
2021/08/27 08:09:35;;;;;;;5.07;2.83;;;16.20;74.60;;;14.41;80.33;95847.84;4975672;28;20142;-68
2021/08/27 08:12:00;;;;;;;5.07;2.97;;;16.10;74.80;;;14.39;81.23;95855.19;4953770;28;20105;-68
2021/08/27 08:14:26;;;;;;;5.47;2.90;;;16.10;74.90;;;14.37;82.00;95854.59;4969258;28;20059;-68
2021/08/27 08:16:52;;;;;;;7.78;2.95;;;16.10;75.10;;;14.31;80.73;95851.00;4957729;28;20039;-70
2021/08/27 08:19:18;;;;;;;7.43;3.08;;;15.80;75.20;;;14.27;80.50;95859.59;4974325;28;20038;-67
2021/08/27 08:21:43;;;;;;;4.53;2.95;;;15.90;75.10;;;14.23;81.15;95851.25;4979421;28;20110;-67
2021/08/27 08:24:09;;;;;;;4.68;2.75;;;15.70;75.10;;;14.19;81.30;95858.03;4974375;28;20042;-74
2021/08/27 08:26:35;;;;;;;4.53;2.70;;;15.70;75.10;;;14.15;80.48;95856.03;4981330;28;20042;-70
2021/08/27 08:29:01;;;;;;;3.80;2.42;;;15.80;74.60;;;14.17;80.34;95852.13;5003020;28;20039;-70
2021/08/27 08:31:28;;;;;;;4.75;2.50;;;15.90;75.00;;;14.21;80.78;95850.66;4971024;28;20046;-72
2021/08/27 08:33:54;;;;;;;4.82;3.00;;;16.10;75.50;;;14.32;80.72;95851.81;4972619;28;20064;-67
2021/08/27 08:36:21;;;;;;;6.85;3.42;;;16.30;74.90;;;14.43;81.75;95851.09;4972421;28;20038;-68
2021/08/27 08:38:47;;;;;;;5.10;3.38;;;16.50;74.60;;;14.55;81.34;95861.78;4988039;28;20065;-73
2021/08/27 08:41:14;;;;;;;4.22;2.83;;;16.70;73.10;;;14.65;80.55;95862.88;4986351;28;20034;-67
2021/08/27 08:43:41;;;;;;;4.70;2.75;;;16.80;73.00;;;14.75;80.36;95872.19;4988103;28;20026;-67
2021/08/27 08:46:07;;;;;;;4.78;2.40;;;16.90;72.20;;;14.89;79.94;95865.69;4977501;28;20034;-67
2021/08/27 08:48:33;;;;;;;5.03;2.53;;;17.20;71.30;;;15.00;79.27;95871.06;4968499;28;20037;-67
2021/08/27 08:51:00;;;;;;;6.05;2.90;;;17.30;69.80;;;15.18;79.28;95880.84;4967886;28;20035;-70
2021/08/27 08:53:26;;;;;;;5.45;2.70;;;17.70;69.40;;;15.51;78.86;95861.84;4968925;28;21248;-68
2021/08/27 08:55:52;;;;;;;5.50;2.30;;;18.50;67.20;;;15.98;78.11;95867.28;4975344;28;20494;-67
2021/08/27 08:58:18;;;;;;;6.28;2.75;;;19.40;66.40;;;16.47;78.19;95866.06;4976863;28;20045;-68
2021/08/27 09:00:44;;;;;;;3.75;2.35;;;19.80;64.40;;;16.92;75.96;95862.00;4986698;28;20061;-69
2021/08/27 09:03:10;;;;;;;4.38;1.98;;;20.30;59.30;;;17.26;74.28;95863.78;4997836;28;20433;-69
2021/08/27 09:05:39;;;;;;;5.15;2.08;;;20.50;59.30;;;17.55;71.91;95861.91;4952805;28;20073;-70
2021/08/27 09:08:04;;;;;;;3.95;1.60;;;20.50;58.60;;;17.75;73.18;95857.00;4957964;28;20410;-69
2021/08/27 09:10:31;;;;;;;3.38;1.85;;;20.40;59.90;;;17.84;71.18;95853.94;5003799;28;20060;-71
2021/08/27 09:13:05;;;;;;;4.65;1.60;;;20.20;57.60;;;17.91;67.89;95857.28;4951836;28;20035;-70
2021/08/27 09:15:31;;;;;;;3.35;1.48;;;20.30;58.10;;;17.89;69.72;95851.38;4970119;28;20035;-70
2021/08/27 09:17:57;;;;;;;3.92;2.38;;;19.90;58.70;;;17.86;69.74;95852.63;4961266;28;20092;-67
2021/08/27 09:20:28;;;;;;;4.57;1.85;;;19.80;60.30;;;17.80;68.11;95855.47;4973206;28;20070;-66
2021/08/27 09:22:59;;;;;;;3.70;1.33;;;19.80;58.70;;;17.87;66.20;95850.78;4983365;28;20680;-68
2021/08/27 09:25:26;;;;;;;2.42;1.30;;;20.20;57.20;;;18.01;67.93;95854.75;4973307;28;20097;-68
2021/08/27 09:28:18;;;;;;;4.15;1.55;;;20.50;56.90;;;18.13;63.48;95844.84;4969491;28;20592;-68
2021/08/27 09:30:46;;;;;;;3.15;1.15;;;20.50;57.20;;;18.22;65.17;95854.03;4962997;28;20499;-72
2021/08/27 09:33:14;;;;;;;3.85;1.70;;;20.80;54.30;;;18.47;65.43;95852.81;4988685;28;20034;-69
2021/08/27 09:35:54;;;;;;;5.40;1.80;;;21.40;52.30;;;18.91;61.69;95843.84;4956322;28;20073;-71
2021/08/27 09:38:19;;;;;;;6.88;1.85;;;22.20;50.70;;;19.28;65.08;95853.91;4961626;28;20062;-72
2021/08/27 09:40:49;;;;;;;3.35;1.40;;;22.30;52.30;;;19.33;63.61;95850.47;4987321;28;20065;-70
2021/08/27 09:43:23;;;;;;;3.78;1.50;;;21.70;52.00;;;19.15;60.76;95840.94;4972487;28;20118;-68
2021/08/27 09:45:49;;;;;;;4.38;1.25;;;21.10;53.00;;;18.96;63.65;95846.56;4969039;28;20038;-70
2021/08/27 09:48:14;;;;;;;2.28;1.27;;;20.60;53.30;;;18.74;62.54;95853.75;4992268;28;20065;-72
2021/08/27 09:50:44;;;;;;;2.63;1.17;;;20.30;53.70;;;18.41;62.62;95845.81;4971701;28;20034;-67
2021/08/27 09:53:11;;;;;;;3.40;1.10;;;19.60;54.60;;;18.13;62.32;95852.84;4988010;28;20041;-69
2021/08/27 09:55:38;;;;;;;3.25;1.25;;;19.40;55.90;;;17.88;62.62;95844.41;4988333;28;20045;-73
2021/08/27 09:58:07;;;;;;;1.73;1.00;;;19.10;57.30;;;17.61;61.97;95839.69;4967248;28;20468;-73
2021/08/27 10:00:35;;;;;;;3.03;1.40;;;18.80;58.60;;;17.41;63.86;95847.28;4968753;28;20121;-75
2021/08/27 10:03:15;;;;;;;2.63;1.25;;;18.70;59.90;;;17.20;64.65;95847.94;4985674;28;20023;-72
2021/08/27 10:05:40;;;;;;;4.03;1.30;;;18.50;59.90;;;16.97;64.43;95849.63;4955629;28;20043;-70
2021/08/27 10:08:17;;;;;;;3.45;1.40;;;18.20;61.20;;;16.79;64.81;95850.59;4972392;28;20034;-72
2021/08/27 10:10:43;;;;;;;3.05;1.20;;;18.10;61.60;;;16.61;65.97;95857.88;4969015;28;20031;-77
2021/08/27 10:13:10;;;;;;;4.55;1.40;;;17.90;63.20;;;16.44;66.81;95855.91;4952734;28;21823;-77
2021/08/27 10:15:36;;;;;;;4.03;1.50;;;17.70;63.80;;;16.28;67.54;95848.63;4952857;28;20050;-76
2021/08/27 10:18:07;;;;;;;3.40;1.50;;;17.60;66.40;;;16.12;69.27;95858.09;4953103;28;20045;-77